sensor_id;sensor_type;location;lat;lon;timestamp;temperature;humidity
983;DHT22;480;48.124;11.578;2022-07-11T00:02:18;16.50;99.90
983;DHT22;480;48.124;11.578;2022-07-11T00:04:46;16.40;99.90
983;DHT22;480;48.124;11.578;2022-07-11T00:07:14;16.30;99.90
983;DHT22;480;48.124;11.578;2022-07-11T00:09:41;16.40;99.90
983;DHT22;480;48.124;11.578;2022-07-11T00:12:09;16.10;99.90
983;DHT22;480;48.124;11.578;2022-07-11T00:14:41;16.10;99.90
983;DHT22;480;48.124;11.578;2022-07-11T00:17:08;16.10;99.90
983;DHT22;480;48.124;11.578;2022-07-11T00:19:36;16.20;99.90
983;DHT22;480;48.124;11.578;2022-07-11T00:22:04;16.40;99.90
983;DHT22;480;48.124;11.578;2022-07-11T00:24:31;16.50;99.90
983;DHT22;480;48.124;11.578;2022-07-11T00:26:58;16.50;99.90
983;DHT22;480;48.124;11.578;2022-07-11T00:29:25;16.40;99.90
983;DHT22;480;48.124;11.578;2022-07-11T00:31:56;16.40;99.90
983;DHT22;480;48.124;11.578;2022-07-11T00:34:23;16.50;99.90
983;DHT22;480;48.124;11.578;2022-07-11T00:36:50;16.60;99.90
983;DHT22;480;48.124;11.578;2022-07-11T00:39:19;16.60;99.90
983;DHT22;480;48.124;11.578;2022-07-11T00:41:46;16.60;99.90
983;DHT22;480;48.124;11.578;2022-07-11T00:44:13;16.70;99.90
983;DHT22;480;48.124;11.578;2022-07-11T00:46:41;16.60;99.90
983;DHT22;480;48.124;11.578;2022-07-11T00:49:10;16.60;99.90
983;DHT22;480;48.124;11.578;2022-07-11T00:51:37;16.60;99.90
983;DHT22;480;48.124;11.578;2022-07-11T00:54:07;16.70;99.90
983;DHT22;480;48.124;11.578;2022-07-11T00:56:34;16.80;99.90
983;DHT22;480;48.124;11.578;2022-07-11T00:59:02;16.80;99.90
983;DHT22;480;48.124;11.578;2022-07-11T01:01:29;16.80;99.90
983;DHT22;480;48.124;11.578;2022-07-11T01:03:57;16.90;99.90
983;DHT22;480;48.124;11.578;2022-07-11T01:06:26;16.80;99.90
983;DHT22;480;48.124;11.578;2022-07-11T01:08:53;16.90;99.90
983;DHT22;480;48.124;11.578;2022-07-11T01:11:20;17.00;99.90
983;DHT22;480;48.124;11.578;2022-07-11T01:13:48;17.00;99.90
983;DHT22;480;48.124;11.578;2022-07-11T01:16:16;17.00;99.90
983;DHT22;480;48.124;11.578;2022-07-11T01:18:44;17.00;99.90
983;DHT22;480;48.124;11.578;2022-07-11T01:21:19;17.00;99.90
983;DHT22;480;48.124;11.578;2022-07-11T01:23:49;17.10;99.90
983;DHT22;480;48.124;11.578;2022-07-11T01:26:18;17.20;99.90
983;DHT22;480;48.124;11.578;2022-07-11T01:28:45;17.20;99.90
983;DHT22;480;48.124;11.578;2022-07-11T01:31:13;17.30;99.90
983;DHT22;480;48.124;11.578;2022-07-11T01:33:40;17.30;99.90
983;DHT22;480;48.124;11.578;2022-07-11T01:36:08;17.30;99.90
983;DHT22;480;48.124;11.578;2022-07-11T01:38:35;17.30;99.90
983;DHT22;480;48.124;11.578;2022-07-11T01:41:04;17.30;99.90
983;DHT22;480;48.124;11.578;2022-07-11T01:43:31;17.40;99.90
983;DHT22;480;48.124;11.578;2022-07-11T01:45:58;17.30;99.90
983;DHT22;480;48.124;11.578;2022-07-11T01:48:26;17.30;99.90
983;DHT22;480;48.124;11.578;2022-07-11T01:50:53;17.30;99.90
983;DHT22;480;48.124;11.578;2022-07-11T01:53:20;17.40;99.90
983;DHT22;480;48.124;11.578;2022-07-11T01:55:48;17.40;99.90
983;DHT22;480;48.124;11.578;2022-07-11T01:58:16;17.40;99.90
983;DHT22;480;48.124;11.578;2022-07-11T02:00:43;17.40;99.90
983;DHT22;480;48.124;11.578;2022-07-11T02:03:10;17.40;99.90
983;DHT22;480;48.124;11.578;2022-07-11T02:05:37;17.50;99.90
983;DHT22;480;48.124;11.578;2022-07-11T02:08:06;17.50;99.90
983;DHT22;480;48.124;11.578;2022-07-11T02:10:41;17.50;99.90
983;DHT22;480;48.124;11.578;2022-07-11T02:13:08;17.50;99.90
983;DHT22;480;48.124;11.578;2022-07-11T02:15:40;17.50;99.90
983;DHT22;480;48.124;11.578;2022-07-11T02:18:08;17.50;99.90
983;DHT22;480;48.124;11.578;2022-07-11T02:20:36;17.50;99.90
983;DHT22;480;48.124;11.578;2022-07-11T02:23:03;17.50;99.90
983;DHT22;480;48.124;11.578;2022-07-11T02:25:31;17.50;99.90
983;DHT22;480;48.124;11.578;2022-07-11T02:28:01;17.50;99.90
983;DHT22;480;48.124;11.578;2022-07-11T02:30:28;17.50;99.90
983;DHT22;480;48.124;11.578;2022-07-11T02:32:56;17.50;99.90
983;DHT22;480;48.124;11.578;2022-07-11T02:35:23;17.40;99.90
983;DHT22;480;48.124;11.578;2022-07-11T02:37:50;17.30;99.90
983;DHT22;480;48.124;11.578;2022-07-11T02:40:18;17.40;99.90
983;DHT22;480;48.124;11.578;2022-07-11T02:42:45;17.40;99.90
983;DHT22;480;48.124;11.578;2022-07-11T02:45:12;17.40;99.90
983;DHT22;480;48.124;11.578;2022-07-11T02:47:39;17.40;99.90
983;DHT22;480;48.124;11.578;2022-07-11T02:50:11;17.50;99.90
983;DHT22;480;48.124;11.578;2022-07-11T02:52:39;17.50;99.90
983;DHT22;480;48.124;11.578;2022-07-11T02:55:07;17.50;99.90
983;DHT22;480;48.124;11.578;2022-07-11T02:57:35;17.40;99.50
983;DHT22;480;48.124;11.578;2022-07-11T03:00:05;17.30;99.80
983;DHT22;480;48.124;11.578;2022-07-11T03:02:33;17.40;99.50
983;DHT22;480;48.124;11.578;2022-07-11T03:05:00;17.30;99.70
983;DHT22;480;48.124;11.578;2022-07-11T03:07:28;17.30;99.20
983;DHT22;480;48.124;11.578;2022-07-11T03:09:56;17.40;99.20
983;DHT22;480;48.124;11.578;2022-07-11T03:12:23;17.40;99.40
983;DHT22;480;48.124;11.578;2022-07-11T03:14:50;17.40;99.50
983;DHT22;480;48.124;11.578;2022-07-11T03:17:17;17.40;99.80
983;DHT22;480;48.124;11.578;2022-07-11T03:19:44;17.40;99.70
983;DHT22;480;48.124;11.578;2022-07-11T03:22:12;17.40;99.90
983;DHT22;480;48.124;11.578;2022-07-11T03:24:41;17.30;99.90
983;DHT22;480;48.124;11.578;2022-07-11T03:27:08;17.30;99.90
983;DHT22;480;48.124;11.578;2022-07-11T03:29:35;17.40;99.90
983;DHT22;480;48.124;11.578;2022-07-11T03:32:03;17.40;99.90
983;DHT22;480;48.124;11.578;2022-07-11T03:34:31;17.40;99.70
983;DHT22;480;48.124;11.578;2022-07-11T03:36:58;17.40;99.80
983;DHT22;480;48.124;11.578;2022-07-11T03:39:25;17.40;99.90
983;DHT22;480;48.124;11.578;2022-07-11T03:41:53;17.40;99.70
983;DHT22;480;48.124;11.578;2022-07-11T03:44:20;17.40;99.70
983;DHT22;480;48.124;11.578;2022-07-11T03:46:47;17.40;99.60
983;DHT22;480;48.124;11.578;2022-07-11T03:49:14;17.40;99.50
983;DHT22;480;48.124;11.578;2022-07-11T03:51:42;17.50;99.50
983;DHT22;480;48.124;11.578;2022-07-11T03:54:09;17.50;99.50
983;DHT22;480;48.124;11.578;2022-07-11T03:56:36;17.50;99.40
983;DHT22;480;48.124;11.578;2022-07-11T03:59:04;17.50;99.30
983;DHT22;480;48.124;11.578;2022-07-11T04:01:31;17.40;99.30
983;DHT22;480;48.124;11.578;2022-07-11T04:03:58;17.30;99.30
983;DHT22;480;48.124;11.578;2022-07-11T04:06:25;17.30;99.30
983;DHT22;480;48.124;11.578;2022-07-11T04:08:53;17.30;99.10
983;DHT22;480;48.124;11.578;2022-07-11T04:11:20;17.40;99.20
983;DHT22;480;48.124;11.578;2022-07-11T04:13:49;17.40;98.90
983;DHT22;480;48.124;11.578;2022-07-11T04:16:17;17.40;98.90
983;DHT22;480;48.124;11.578;2022-07-11T04:18:44;17.40;98.70
983;DHT22;480;48.124;11.578;2022-07-11T04:21:11;17.50;99.10
983;DHT22;480;48.124;11.578;2022-07-11T04:23:38;17.50;99.00
983;DHT22;480;48.124;11.578;2022-07-11T04:26:05;17.50;98.70
983;DHT22;480;48.124;11.578;2022-07-11T04:28:32;17.30;98.90
983;DHT22;480;48.124;11.578;2022-07-11T04:31:00;17.30;99.10
983;DHT22;480;48.124;11.578;2022-07-11T04:33:28;17.40;98.90
983;DHT22;480;48.124;11.578;2022-07-11T04:35:55;17.40;98.50
983;DHT22;480;48.124;11.578;2022-07-11T04:38:22;17.40;98.80
983;DHT22;480;48.124;11.578;2022-07-11T04:40:50;17.40;99.00
983;DHT22;480;48.124;11.578;2022-07-11T04:43:17;17.50;98.90
983;DHT22;480;48.124;11.578;2022-07-11T04:45:44;17.50;99.00
983;DHT22;480;48.124;11.578;2022-07-11T04:48:11;17.60;98.80
983;DHT22;480;48.124;11.578;2022-07-11T04:50:42;17.80;98.70
983;DHT22;480;48.124;11.578;2022-07-11T04:53:10;17.80;98.40
983;DHT22;480;48.124;11.578;2022-07-11T04:55:37;17.80;98.80
983;DHT22;480;48.124;11.578;2022-07-11T04:58:06;17.80;98.90
983;DHT22;480;48.124;11.578;2022-07-11T05:00:35;17.90;98.80
983;DHT22;480;48.124;11.578;2022-07-11T05:03:02;18.00;98.50
983;DHT22;480;48.124;11.578;2022-07-11T05:05:30;18.00;98.70
983;DHT22;480;48.124;11.578;2022-07-11T05:07:58;18.10;98.90
983;DHT22;480;48.124;11.578;2022-07-11T05:10:26;18.20;98.20
983;DHT22;480;48.124;11.578;2022-07-11T05:12:53;18.10;98.40
983;DHT22;480;48.124;11.578;2022-07-11T05:15:20;18.20;98.40
983;DHT22;480;48.124;11.578;2022-07-11T05:17:47;18.20;98.30
983;DHT22;480;48.124;11.578;2022-07-11T05:20:14;18.20;98.50
983;DHT22;480;48.124;11.578;2022-07-11T05:22:41;18.10;98.60
983;DHT22;480;48.124;11.578;2022-07-11T05:25:09;18.20;98.60
983;DHT22;480;48.124;11.578;2022-07-11T05:27:37;18.10;98.60
983;DHT22;480;48.124;11.578;2022-07-11T05:30:05;18.20;98.60
983;DHT22;480;48.124;11.578;2022-07-11T05:32:33;18.40;99.00
983;DHT22;480;48.124;11.578;2022-07-11T05:35:00;18.50;98.90
983;DHT22;480;48.124;11.578;2022-07-11T05:37:28;18.30;98.70
983;DHT22;480;48.124;11.578;2022-07-11T05:39:55;18.30;99.00
983;DHT22;480;48.124;11.578;2022-07-11T05:42:23;18.40;99.00
983;DHT22;480;48.124;11.578;2022-07-11T05:44:50;18.60;98.60
983;DHT22;480;48.124;11.578;2022-07-11T05:47:18;18.50;98.70
983;DHT22;480;48.124;11.578;2022-07-11T05:49:44;18.50;98.70
983;DHT22;480;48.124;11.578;2022-07-11T05:52:12;18.60;98.50
983;DHT22;480;48.124;11.578;2022-07-11T05:54:38;18.50;99.00
983;DHT22;480;48.124;11.578;2022-07-11T05:57:06;18.50;99.20
983;DHT22;480;48.124;11.578;2022-07-11T05:59:35;18.60;98.90
983;DHT22;480;48.124;11.578;2022-07-11T06:02:04;18.60;98.90
983;DHT22;480;48.124;11.578;2022-07-11T06:04:32;18.60;99.20
983;DHT22;480;48.124;11.578;2022-07-11T06:06:59;18.70;98.50
983;DHT22;480;48.124;11.578;2022-07-11T06:09:26;18.70;98.70
983;DHT22;480;48.124;11.578;2022-07-11T06:11:53;18.80;98.30
983;DHT22;480;48.124;11.578;2022-07-11T06:14:20;18.60;98.30
983;DHT22;480;48.124;11.578;2022-07-11T06:16:49;18.60;98.00
983;DHT22;480;48.124;11.578;2022-07-11T06:19:16;18.60;98.40
983;DHT22;480;48.124;11.578;2022-07-11T06:21:43;18.60;98.40
983;DHT22;480;48.124;11.578;2022-07-11T06:24:10;18.60;97.90
983;DHT22;480;48.124;11.578;2022-07-11T06:26:38;18.50;97.90
983;DHT22;480;48.124;11.578;2022-07-11T06:29:05;18.60;97.60
983;DHT22;480;48.124;11.578;2022-07-11T06:31:33;18.60;97.90
983;DHT22;480;48.124;11.578;2022-07-11T06:34:02;18.60;98.70
983;DHT22;480;48.124;11.578;2022-07-11T06:36:28;18.60;98.70
983;DHT22;480;48.124;11.578;2022-07-11T06:38:55;18.80;98.40
983;DHT22;480;48.124;11.578;2022-07-11T06:41:22;19.00;98.00
983;DHT22;480;48.124;11.578;2022-07-11T06:43:49;18.90;97.40
983;DHT22;480;48.124;11.578;2022-07-11T06:46:17;18.90;97.40
983;DHT22;480;48.124;11.578;2022-07-11T06:48:44;19.00;97.30
983;DHT22;480;48.124;11.578;2022-07-11T06:51:13;19.00;97.10
983;DHT22;480;48.124;11.578;2022-07-11T06:53:40;19.00;97.50
983;DHT22;480;48.124;11.578;2022-07-11T06:56:08;19.00;97.00
983;DHT22;480;48.124;11.578;2022-07-11T06:58:35;19.00;97.20
983;DHT22;480;48.124;11.578;2022-07-11T07:01:04;19.10;96.70
983;DHT22;480;48.124;11.578;2022-07-11T07:03:32;19.30;97.20
983;DHT22;480;48.124;11.578;2022-07-11T07:06:00;19.50;96.80
983;DHT22;480;48.124;11.578;2022-07-11T07:08:29;19.50;96.00
983;DHT22;480;48.124;11.578;2022-07-11T07:10:57;19.50;96.10
983;DHT22;480;48.124;11.578;2022-07-11T07:13:24;19.60;96.20
983;DHT22;480;48.124;11.578;2022-07-11T07:15:54;19.50;96.00
983;DHT22;480;48.124;11.578;2022-07-11T07:18:22;19.60;96.30
983;DHT22;480;48.124;11.578;2022-07-11T07:20:49;19.60;96.80
983;DHT22;480;48.124;11.578;2022-07-11T07:23:17;19.80;96.20
983;DHT22;480;48.124;11.578;2022-07-11T07:25:45;19.80;96.40
983;DHT22;480;48.124;11.578;2022-07-11T07:28:12;20.00;96.40
983;DHT22;480;48.124;11.578;2022-07-11T07:30:39;20.00;96.80
983;DHT22;480;48.124;11.578;2022-07-11T07:33:06;20.00;96.40
983;DHT22;480;48.124;11.578;2022-07-11T07:35:33;20.00;96.10
983;DHT22;480;48.124;11.578;2022-07-11T07:38:00;20.00;96.00
983;DHT22;480;48.124;11.578;2022-07-11T07:40:28;20.10;96.00
983;DHT22;480;48.124;11.578;2022-07-11T07:42:57;20.20;96.20
983;DHT22;480;48.124;11.578;2022-07-11T07:45:27;20.30;96.30
983;DHT22;480;48.124;11.578;2022-07-11T07:47:54;20.50;95.30
983;DHT22;480;48.124;11.578;2022-07-11T07:50:21;20.50;95.40
983;DHT22;480;48.124;11.578;2022-07-11T07:52:48;20.60;95.20
983;DHT22;480;48.124;11.578;2022-07-11T07:55:15;20.80;95.80
983;DHT22;480;48.124;11.578;2022-07-11T07:57:42;20.90;95.30
983;DHT22;480;48.124;11.578;2022-07-11T08:00:11;20.80;95.60
983;DHT22;480;48.124;11.578;2022-07-11T08:02:56;20.80;96.00
983;DHT22;480;48.124;11.578;2022-07-11T08:05:23;20.80;95.70
983;DHT22;480;48.124;11.578;2022-07-11T08:07:50;20.80;96.10
983;DHT22;480;48.124;11.578;2022-07-11T08:10:17;20.90;96.70
983;DHT22;480;48.124;11.578;2022-07-11T08:12:44;20.80;96.50
983;DHT22;480;48.124;11.578;2022-07-11T08:15:12;20.80;96.90
983;DHT22;480;48.124;11.578;2022-07-11T08:17:39;20.90;96.50
983;DHT22;480;48.124;11.578;2022-07-11T08:20:08;20.90;97.00
983;DHT22;480;48.124;11.578;2022-07-11T08:22:35;20.80;96.70
983;DHT22;480;48.124;11.578;2022-07-11T08:25:03;21.00;96.50
983;DHT22;480;48.124;11.578;2022-07-11T08:27:30;21.00;96.90
983;DHT22;480;48.124;11.578;2022-07-11T08:29:57;21.20;96.70
983;DHT22;480;48.124;11.578;2022-07-11T08:32:25;21.20;96.60
983;DHT22;480;48.124;11.578;2022-07-11T08:34:52;21.20;96.90
983;DHT22;480;48.124;11.578;2022-07-11T08:37:20;21.30;96.80
983;DHT22;480;48.124;11.578;2022-07-11T08:39:47;21.40;96.10
983;DHT22;480;48.124;11.578;2022-07-11T08:42:18;21.20;95.90
983;DHT22;480;48.124;11.578;2022-07-11T08:44:45;21.10;96.50
983;DHT22;480;48.124;11.578;2022-07-11T08:47:12;21.30;95.80
983;DHT22;480;48.124;11.578;2022-07-11T08:49:41;21.30;95.70
983;DHT22;480;48.124;11.578;2022-07-11T08:52:11;21.20;95.80
983;DHT22;480;48.124;11.578;2022-07-11T08:54:39;21.20;95.70
983;DHT22;480;48.124;11.578;2022-07-11T08:57:06;20.90;95.50
983;DHT22;480;48.124;11.578;2022-07-11T08:59:35;21.10;95.80
983;DHT22;480;48.124;11.578;2022-07-11T09:02:03;21.50;95.90
983;DHT22;480;48.124;11.578;2022-07-11T09:04:31;21.60;95.50
983;DHT22;480;48.124;11.578;2022-07-11T09:07:01;21.60;95.60
983;DHT22;480;48.124;11.578;2022-07-11T09:09:28;21.50;94.40
983;DHT22;480;48.124;11.578;2022-07-11T09:11:57;21.30;94.40
983;DHT22;480;48.124;11.578;2022-07-11T09:14:26;21.30;95.00
983;DHT22;480;48.124;11.578;2022-07-11T09:16:55;21.20;95.30
983;DHT22;480;48.124;11.578;2022-07-11T09:19:23;21.10;95.20
983;DHT22;480;48.124;11.578;2022-07-11T09:22:03;20.90;95.00
983;DHT22;480;48.124;11.578;2022-07-11T09:24:59;21.00;94.00
983;DHT22;480;48.124;11.578;2022-07-11T09:27:46;21.00;95.10
983;DHT22;480;48.124;11.578;2022-07-11T09:30:19;21.10;95.50
983;DHT22;480;48.124;11.578;2022-07-11T09:32:58;21.10;95.60
983;DHT22;480;48.124;11.578;2022-07-11T09:35:28;21.10;95.80
983;DHT22;480;48.124;11.578;2022-07-11T09:37:57;21.30;95.30
983;DHT22;480;48.124;11.578;2022-07-11T09:40:24;21.10;95.20
983;DHT22;480;48.124;11.578;2022-07-11T09:42:54;20.90;94.50
983;DHT22;480;48.124;11.578;2022-07-11T09:45:22;20.80;94.90
983;DHT22;480;48.124;11.578;2022-07-11T09:47:53;20.80;95.70
983;DHT22;480;48.124;11.578;2022-07-11T09:50:21;21.00;95.90
983;DHT22;480;48.124;11.578;2022-07-11T09:53:04;21.10;95.90
983;DHT22;480;48.124;11.578;2022-07-11T09:55:33;21.20;95.60
983;DHT22;480;48.124;11.578;2022-07-11T09:58:03;21.20;95.40
983;DHT22;480;48.124;11.578;2022-07-11T10:00:31;21.10;95.40
983;DHT22;480;48.124;11.578;2022-07-11T10:02:59;21.20;95.00
983;DHT22;480;48.124;11.578;2022-07-11T10:05:27;21.10;95.10
983;DHT22;480;48.124;11.578;2022-07-11T10:07:55;21.00;94.90
983;DHT22;480;48.124;11.578;2022-07-11T10:10:25;21.00;95.00
983;DHT22;480;48.124;11.578;2022-07-11T10:12:53;21.10;95.40
983;DHT22;480;48.124;11.578;2022-07-11T10:15:22;21.20;94.40
983;DHT22;480;48.124;11.578;2022-07-11T10:17:58;21.30;93.90
983;DHT22;480;48.124;11.578;2022-07-11T10:20:31;21.50;94.10
983;DHT22;480;48.124;11.578;2022-07-11T10:23:06;21.50;94.60
983;DHT22;480;48.124;11.578;2022-07-11T10:25:43;21.50;95.50
983;DHT22;480;48.124;11.578;2022-07-11T10:28:23;21.70;94.60
983;DHT22;480;48.124;11.578;2022-07-11T10:30:52;21.70;94.10
983;DHT22;480;48.124;11.578;2022-07-11T10:33:22;21.50;94.60
983;DHT22;480;48.124;11.578;2022-07-11T10:35:50;21.40;94.30
983;DHT22;480;48.124;11.578;2022-07-11T10:38:18;21.30;94.40
983;DHT22;480;48.124;11.578;2022-07-11T10:40:49;21.50;94.70
983;DHT22;480;48.124;11.578;2022-07-11T10:43:33;21.40;94.40
983;DHT22;480;48.124;11.578;2022-07-11T10:46:03;21.50;95.10
983;DHT22;480;48.124;11.578;2022-07-11T10:48:32;21.60;94.70
983;DHT22;480;48.124;11.578;2022-07-11T10:51:22;21.50;95.10
983;DHT22;480;48.124;11.578;2022-07-11T10:53:51;21.40;95.10
983;DHT22;480;48.124;11.578;2022-07-11T10:56:53;21.50;96.00
983;DHT22;480;48.124;11.578;2022-07-11T10:59:24;21.70;95.40
983;DHT22;480;48.124;11.578;2022-07-11T11:02:07;21.80;94.60
983;DHT22;480;48.124;11.578;2022-07-11T11:04:43;21.80;94.80
983;DHT22;480;48.124;11.578;2022-07-11T11:07:33;21.90;94.30
983;DHT22;480;48.124;11.578;2022-07-11T11:10:02;22.20;94.70
983;DHT22;480;48.124;11.578;2022-07-11T11:15:40;22.50;93.90
983;DHT22;480;48.124;11.578;2022-07-11T11:18:30;22.70;94.30
983;DHT22;480;48.124;11.578;2022-07-11T11:21:19;22.50;93.60
983;DHT22;480;48.124;11.578;2022-07-11T11:24:01;22.50;93.90
983;DHT22;480;48.124;11.578;2022-07-11T11:26:50;22.50;93.80
983;DHT22;480;48.124;11.578;2022-07-11T11:29:20;22.60;93.10
983;DHT22;480;48.124;11.578;2022-07-11T11:31:54;22.60;93.60
983;DHT22;480;48.124;11.578;2022-07-11T11:34:22;22.90;93.80
983;DHT22;480;48.124;11.578;2022-07-11T11:36:58;23.10;93.70
983;DHT22;480;48.124;11.578;2022-07-11T11:39:27;23.00;93.60
983;DHT22;480;48.124;11.578;2022-07-11T11:42:01;23.10;93.50
983;DHT22;480;48.124;11.578;2022-07-11T11:44:30;23.10;93.40
983;DHT22;480;48.124;11.578;2022-07-11T11:46:59;23.20;92.60
983;DHT22;480;48.124;11.578;2022-07-11T11:49:26;22.90;93.70
983;DHT22;480;48.124;11.578;2022-07-11T11:51:54;22.90;94.00
983;DHT22;480;48.124;11.578;2022-07-11T11:54:23;22.80;93.90
983;DHT22;480;48.124;11.578;2022-07-11T11:56:51;22.60;94.20
983;DHT22;480;48.124;11.578;2022-07-11T11:59:28;22.70;94.20
983;DHT22;480;48.124;11.578;2022-07-11T12:01:57;22.90;94.30
983;DHT22;480;48.124;11.578;2022-07-11T12:04:24;22.90;94.20
983;DHT22;480;48.124;11.578;2022-07-11T12:06:56;22.90;94.30
983;DHT22;480;48.124;11.578;2022-07-11T12:09:23;23.00;94.10
983;DHT22;480;48.124;11.578;2022-07-11T12:12:11;23.00;94.80
983;DHT22;480;48.124;11.578;2022-07-11T12:14:55;23.30;94.60
983;DHT22;480;48.124;11.578;2022-07-11T12:17:28;23.40;94.20
983;DHT22;480;48.124;11.578;2022-07-11T12:19:55;23.40;93.40
983;DHT22;480;48.124;11.578;2022-07-11T12:22:23;23.30;93.50
983;DHT22;480;48.124;11.578;2022-07-11T12:24:52;23.00;94.30
983;DHT22;480;48.124;11.578;2022-07-11T12:27:20;23.00;94.90
983;DHT22;480;48.124;11.578;2022-07-11T12:29:48;23.40;94.60
983;DHT22;480;48.124;11.578;2022-07-11T12:32:18;23.60;94.80
983;DHT22;480;48.124;11.578;2022-07-11T12:34:48;23.60;93.80
983;DHT22;480;48.124;11.578;2022-07-11T12:37:17;23.40;93.40
983;DHT22;480;48.124;11.578;2022-07-11T12:39:50;23.30;94.10
983;DHT22;480;48.124;11.578;2022-07-11T12:42:22;23.30;94.40
983;DHT22;480;48.124;11.578;2022-07-11T12:45:00;23.60;94.30
983;DHT22;480;48.124;11.578;2022-07-11T12:47:34;23.90;94.20
983;DHT22;480;48.124;11.578;2022-07-11T12:50:11;23.80;93.70
983;DHT22;480;48.124;11.578;2022-07-11T12:52:40;23.60;93.50
983;DHT22;480;48.124;11.578;2022-07-11T12:55:11;23.80;94.50
983;DHT22;480;48.124;11.578;2022-07-11T12:58:00;24.20;93.70
983;DHT22;480;48.124;11.578;2022-07-11T13:00:27;24.10;93.70
983;DHT22;480;48.124;11.578;2022-07-11T13:02:54;24.40;93.50
983;DHT22;480;48.124;11.578;2022-07-11T13:05:23;24.60;92.70
983;DHT22;480;48.124;11.578;2022-07-11T13:07:50;24.60;93.10
983;DHT22;480;48.124;11.578;2022-07-11T13:10:35;24.40;92.40
983;DHT22;480;48.124;11.578;2022-07-11T13:13:32;24.40;92.30
983;DHT22;480;48.124;11.578;2022-07-11T13:16:00;24.50;93.00
983;DHT22;480;48.124;11.578;2022-07-11T13:18:28;24.60;92.80
983;DHT22;480;48.124;11.578;2022-07-11T13:20:56;24.60;92.60
983;DHT22;480;48.124;11.578;2022-07-11T13:23:23;24.80;92.80
983;DHT22;480;48.124;11.578;2022-07-11T13:25:50;24.90;91.90
983;DHT22;480;48.124;11.578;2022-07-11T13:28:17;25.20;91.80
983;DHT22;480;48.124;11.578;2022-07-11T13:30:46;25.30;91.10
983;DHT22;480;48.124;11.578;2022-07-11T13:33:13;24.90;91.80
983;DHT22;480;48.124;11.578;2022-07-11T13:35:40;24.90;91.40
983;DHT22;480;48.124;11.578;2022-07-11T13:38:08;24.90;91.00
983;DHT22;480;48.124;11.578;2022-07-11T13:40:34;25.10;91.50
983;DHT22;480;48.124;11.578;2022-07-11T13:43:02;25.60;91.00
983;DHT22;480;48.124;11.578;2022-07-11T13:45:29;25.90;90.60
983;DHT22;480;48.124;11.578;2022-07-11T13:47:58;26.10;91.10
983;DHT22;480;48.124;11.578;2022-07-11T13:50:25;26.60;91.20
983;DHT22;480;48.124;11.578;2022-07-11T13:52:52;26.60;90.40
983;DHT22;480;48.124;11.578;2022-07-11T13:55:20;26.20;90.40
983;DHT22;480;48.124;11.578;2022-07-11T13:57:50;25.60;90.80
983;DHT22;480;48.124;11.578;2022-07-11T14:00:18;25.80;91.80
983;DHT22;480;48.124;11.578;2022-07-11T14:02:46;26.10;91.80
983;DHT22;480;48.124;11.578;2022-07-11T14:05:15;26.60;91.10
983;DHT22;480;48.124;11.578;2022-07-11T14:07:44;26.60;91.10
983;DHT22;480;48.124;11.578;2022-07-11T14:10:11;26.80;90.00
983;DHT22;480;48.124;11.578;2022-07-11T14:12:39;26.50;90.30
983;DHT22;480;48.124;11.578;2022-07-11T14:15:08;26.30;90.70
983;DHT22;480;48.124;11.578;2022-07-11T14:17:35;26.20;90.30
983;DHT22;480;48.124;11.578;2022-07-11T14:20:03;26.40;90.80
983;DHT22;480;48.124;11.578;2022-07-11T14:22:32;26.70;90.20
983;DHT22;480;48.124;11.578;2022-07-11T14:24:59;26.80;90.90
983;DHT22;480;48.124;11.578;2022-07-11T14:27:26;26.60;90.20
983;DHT22;480;48.124;11.578;2022-07-11T14:29:53;26.10;90.70
983;DHT22;480;48.124;11.578;2022-07-11T14:32:21;25.80;91.10
983;DHT22;480;48.124;11.578;2022-07-11T14:34:49;25.70;91.40
983;DHT22;480;48.124;11.578;2022-07-11T14:37:16;25.30;91.50
983;DHT22;480;48.124;11.578;2022-07-11T14:39:45;25.10;92.20
983;DHT22;480;48.124;11.578;2022-07-11T14:42:12;25.20;92.40
983;DHT22;480;48.124;11.578;2022-07-11T14:44:39;25.00;92.60
983;DHT22;480;48.124;11.578;2022-07-11T14:47:06;24.60;92.20
983;DHT22;480;48.124;11.578;2022-07-11T14:49:33;24.50;92.70
983;DHT22;480;48.124;11.578;2022-07-11T14:52:00;24.60;92.60
983;DHT22;480;48.124;11.578;2022-07-11T14:54:27;24.60;93.10
983;DHT22;480;48.124;11.578;2022-07-11T14:56:55;24.40;93.90
983;DHT22;480;48.124;11.578;2022-07-11T14:59:22;24.50;93.30
983;DHT22;480;48.124;11.578;2022-07-11T15:01:49;24.30;93.50
983;DHT22;480;48.124;11.578;2022-07-11T15:04:17;24.10;93.30
983;DHT22;480;48.124;11.578;2022-07-11T15:06:44;24.00;93.50
983;DHT22;480;48.124;11.578;2022-07-11T15:09:28;23.80;94.10
983;DHT22;480;48.124;11.578;2022-07-11T15:12:14;24.20;93.70
983;DHT22;480;48.124;11.578;2022-07-11T15:14:54;24.60;93.70
983;DHT22;480;48.124;11.578;2022-07-11T15:17:21;25.20;92.50
983;DHT22;480;48.124;11.578;2022-07-11T15:19:48;25.20;92.50
983;DHT22;480;48.124;11.578;2022-07-11T15:22:15;24.80;92.60
983;DHT22;480;48.124;11.578;2022-07-11T15:24:44;24.50;93.00
983;DHT22;480;48.124;11.578;2022-07-11T15:27:11;24.30;92.80
983;DHT22;480;48.124;11.578;2022-07-11T15:29:40;24.40;93.40
983;DHT22;480;48.124;11.578;2022-07-11T15:32:08;24.50;92.90
983;DHT22;480;48.124;11.578;2022-07-11T15:34:35;24.60;93.00
983;DHT22;480;48.124;11.578;2022-07-11T15:37:02;24.50;93.20
983;DHT22;480;48.124;11.578;2022-07-11T15:39:29;24.40;93.20
983;DHT22;480;48.124;11.578;2022-07-11T15:41:56;24.40;93.20
983;DHT22;480;48.124;11.578;2022-07-11T15:44:23;24.30;93.20
983;DHT22;480;48.124;11.578;2022-07-11T15:46:53;24.00;93.70
983;DHT22;480;48.124;11.578;2022-07-11T15:49:20;23.90;93.60
983;DHT22;480;48.124;11.578;2022-07-11T15:51:47;23.60;93.90
983;DHT22;480;48.124;11.578;2022-07-11T15:54:14;23.60;94.10
983;DHT22;480;48.124;11.578;2022-07-11T15:56:41;23.60;94.30
983;DHT22;480;48.124;11.578;2022-07-11T15:59:08;23.40;94.50
983;DHT22;480;48.124;11.578;2022-07-11T16:01:35;23.50;94.20
983;DHT22;480;48.124;11.578;2022-07-11T16:04:03;23.50;94.40
983;DHT22;480;48.124;11.578;2022-07-11T16:06:30;23.10;94.80
983;DHT22;480;48.124;11.578;2022-07-11T16:09:00;23.20;95.40
983;DHT22;480;48.124;11.578;2022-07-11T16:11:27;23.10;95.20
983;DHT22;480;48.124;11.578;2022-07-11T16:13:54;23.20;95.20
983;DHT22;480;48.124;11.578;2022-07-11T16:16:22;23.10;95.40
983;DHT22;480;48.124;11.578;2022-07-11T16:18:50;23.20;95.60
983;DHT22;480;48.124;11.578;2022-07-11T16:21:20;23.20;96.00
983;DHT22;480;48.124;11.578;2022-07-11T16:23:47;23.20;95.90
983;DHT22;480;48.124;11.578;2022-07-11T16:26:14;23.40;95.90
983;DHT22;480;48.124;11.578;2022-07-11T16:28:41;23.40;95.70
983;DHT22;480;48.124;11.578;2022-07-11T16:31:08;23.40;95.60
983;DHT22;480;48.124;11.578;2022-07-11T16:33:35;23.10;96.00